createdAt,value
2023-01-20T00:01:22.105Z,1.11
2023-01-20T00:03:48.911Z,1.15
2023-01-20T00:06:15.429Z,1.15
2023-01-20T00:08:41.975Z,1.17
2023-01-20T00:11:11.549Z,1.19
2023-01-20T00:13:38.784Z,1.21
2023-01-20T00:16:07.580Z,1.21
2023-01-20T00:18:35.058Z,1.23
2023-01-20T00:21:04.278Z,1.25
2023-01-20T00:23:30.902Z,1.25
2023-01-20T00:25:57.450Z,1.25
2023-01-20T00:28:23.874Z,1.25
2023-01-20T00:30:50.408Z,1.25
2023-01-20T00:33:16.883Z,1.26
2023-01-20T00:35:44.391Z,1.26
2023-01-20T00:38:10.785Z,1.27
2023-01-20T00:40:37.183Z,1.26
2023-01-20T00:43:03.608Z,1.29
2023-01-20T00:45:30.044Z,1.30
2023-01-20T00:47:56.472Z,1.29
2023-01-20T00:50:22.904Z,1.29
2023-01-20T00:52:49.335Z,1.30
2023-01-20T00:55:16.046Z,1.31
2023-01-20T00:57:42.616Z,1.33
2023-01-20T01:00:09.634Z,1.32
2023-01-20T01:02:39.974Z,1.35
2023-01-20T01:05:06.665Z,1.31
2023-01-20T01:07:33.110Z,1.30
2023-01-20T01:09:59.546Z,1.29
2023-01-20T01:12:26.016Z,1.28
2023-01-20T01:14:52.472Z,1.26
2023-01-20T01:17:18.969Z,1.24
2023-01-20T01:19:45.408Z,1.24
2023-01-20T01:22:11.852Z,1.25
2023-01-20T01:24:38.280Z,1.22
2023-01-20T01:27:04.848Z,1.17
2023-01-20T01:29:31.292Z,1.15
2023-01-20T01:31:57.779Z,1.11
2023-01-20T01:34:24.309Z,1.09
2023-01-20T01:36:50.777Z,1.07
2023-01-20T01:39:17.192Z,1.07
2023-01-20T01:41:43.622Z,1.06
2023-01-20T01:44:12.862Z,1.05
2023-01-20T01:46:41.157Z,1.06
2023-01-20T01:49:17.735Z,1.09
2023-01-20T01:51:58.238Z,1.10
2023-01-20T01:54:29.555Z,1.04
2023-01-20T01:56:56.157Z,1.05
2023-01-20T01:59:22.799Z,1.06
2023-01-20T02:01:51.605Z,1.06
2023-01-20T02:04:21.845Z,1.05
2023-01-20T02:06:52.356Z,1.03
2023-01-20T02:09:19.809Z,1.04
2023-01-20T02:11:52.091Z,1.04
2023-01-20T02:14:26.744Z,1.03
2023-01-20T02:16:53.089Z,1.05
2023-01-20T02:19:46.936Z,1.05
2023-01-20T02:22:31.072Z,1.01
2023-01-20T02:25:14.425Z,1.02
2023-01-20T02:28:09.645Z,1.04
2023-01-20T02:30:57.922Z,1.04
2023-01-20T02:33:38.407Z,1.03
2023-01-20T02:36:13.199Z,1.05
2023-01-20T02:38:56.278Z,1.06
2023-01-20T02:41:28.619Z,1.07
2023-01-20T02:44:18.014Z,1.05
2023-01-20T02:47:04.184Z,1.05
2023-01-20T02:49:37.985Z,1.06
2023-01-20T02:52:17.237Z,1.03
2023-01-20T02:54:48.872Z,1.02
2023-01-20T02:57:23.854Z,0.97
2023-01-20T02:59:54.244Z,0.98
2023-01-20T03:02:25.610Z,0.99
2023-01-20T03:05:01.314Z,0.97
2023-01-20T03:07:31.301Z,0.96
2023-01-20T03:10:02.733Z,0.97
2023-01-20T03:12:59.298Z,0.98
2023-01-20T03:15:35.468Z,0.99
2023-01-20T03:18:01.996Z,0.97
2023-01-20T03:20:28.475Z,0.97
2023-01-20T03:22:54.931Z,0.98
2023-01-20T03:25:22.447Z,0.99
2023-01-20T03:27:48.905Z,0.98
2023-01-20T03:30:16.519Z,0.96
2023-01-20T03:32:47.215Z,0.95
2023-01-20T03:35:16.503Z,0.97
2023-01-20T03:37:44.543Z,0.95
2023-01-20T03:40:12.884Z,0.94
2023-01-20T03:42:49.017Z,0.97
2023-01-20T03:45:24.737Z,0.98
2023-01-20T03:48:09.404Z,0.99
2023-01-20T03:50:38.678Z,1.00
2023-01-20T03:53:23.990Z,1.00
2023-01-20T03:56:00.444Z,1.02
2023-01-20T03:58:37.215Z,1.01
2023-01-20T04:01:17.769Z,1.02
2023-01-20T04:03:48.517Z,1.03
2023-01-20T04:06:16.843Z,1.05
2023-01-20T04:08:55.755Z,1.04
2023-01-20T04:11:23.248Z,1.06
2023-01-20T04:13:50.886Z,1.07
2023-01-20T04:16:19.151Z,1.09
2023-01-20T04:18:48.687Z,1.06
2023-01-20T04:21:28.326Z,1.07
2023-01-20T04:24:02.847Z,1.11
2023-01-20T04:26:29.343Z,1.09
2023-01-20T04:28:55.763Z,1.12
2023-01-20T04:31:30.500Z,1.13
2023-01-20T04:33:57.703Z,1.13
2023-01-20T04:36:25.201Z,1.17
2023-01-20T04:38:51.769Z,1.13
2023-01-20T04:41:18.256Z,1.11
2023-01-20T04:43:45.303Z,1.12
2023-01-20T04:46:15.830Z,1.12
2023-01-20T04:48:44.552Z,1.15
2023-01-20T04:51:10.990Z,1.17
2023-01-20T04:53:37.413Z,1.17
2023-01-20T04:56:04.017Z,1.18
2023-01-20T04:58:30.448Z,1.19
2023-01-20T05:00:56.884Z,1.21
2023-01-20T05:03:23.431Z,1.23
2023-01-20T05:05:56.085Z,1.22
2023-01-20T05:08:22.562Z,1.23
2023-01-20T05:10:49.037Z,1.23
2023-01-20T05:13:15.492Z,1.24
2023-01-20T05:15:43.813Z,1.25
2023-01-20T05:18:10.423Z,1.21
2023-01-20T05:20:36.880Z,1.15
2023-01-20T05:23:03.681Z,1.17
2023-01-20T05:25:30.239Z,1.15
2023-01-20T05:27:58.108Z,1.14
2023-01-20T05:30:24.558Z,1.15
2023-01-20T05:32:51.939Z,1.17
2023-01-20T05:35:18.563Z,1.16
2023-01-20T05:37:45.024Z,1.12
2023-01-20T05:40:11.922Z,1.14
2023-01-20T05:42:38.731Z,1.12
2023-01-20T05:45:05.925Z,1.12
2023-01-20T05:47:32.406Z,1.13
2023-01-20T05:49:58.822Z,1.09
2023-01-20T05:52:25.283Z,1.07
2023-01-20T05:54:51.781Z,1.03
2023-01-20T05:57:18.372Z,1.00
2023-01-20T05:59:48.444Z,1.01
2023-01-20T06:02:18.613Z,1.02
2023-01-20T06:04:46.330Z,1.01
2023-01-20T06:07:12.854Z,1.03
2023-01-20T06:09:39.387Z,1.00
2023-01-20T06:12:06.367Z,0.98
2023-01-20T06:14:32.843Z,0.99
2023-01-20T06:16:59.297Z,0.99
2023-01-20T06:19:25.764Z,1.03
2023-01-20T06:21:53.473Z,1.02
2023-01-20T06:24:20.048Z,1.01
2023-01-20T06:26:46.491Z,1.03
2023-01-20T06:29:12.972Z,1.02
2023-01-20T06:31:39.770Z,1.02
2023-01-20T06:34:06.263Z,1.01
2023-01-20T06:36:32.711Z,1.02
2023-01-20T06:38:59.148Z,1.04
2023-01-20T06:41:25.957Z,1.00
2023-01-20T06:43:52.462Z,1.00
2023-01-20T06:46:19.068Z,1.01
2023-01-20T06:48:46.441Z,1.03
2023-01-20T06:51:15.562Z,1.03
2023-01-20T06:53:42.553Z,1.03
2023-01-20T06:56:13.975Z,1.04
2023-01-20T06:58:41.242Z,1.07
2023-01-20T07:01:11.542Z,1.07
2023-01-20T07:03:38.223Z,1.08
2023-01-20T07:06:14.058Z,1.07
2023-01-20T07:08:40.507Z,1.10
2023-01-20T07:11:06.926Z,1.11
2023-01-20T07:13:33.334Z,1.12
2023-01-20T07:15:59.784Z,1.15
2023-01-20T07:18:26.217Z,1.18
2023-01-20T07:20:56.749Z,1.20
2023-01-20T07:23:23.950Z,1.21
2023-01-20T07:26:16.463Z,1.23
2023-01-20T07:28:43.096Z,1.23
2023-01-20T07:31:12.661Z,1.25
2023-01-20T07:33:39.418Z,1.23
2023-01-20T07:36:07.752Z,1.25
2023-01-20T07:38:35.016Z,1.26
2023-01-20T07:41:05.498Z,1.26
2023-01-20T07:43:32.309Z,1.25
2023-01-20T07:46:01.437Z,1.27
2023-01-20T07:48:30.403Z,1.24
2023-01-20T07:51:02.586Z,1.24
2023-01-20T07:53:30.086Z,1.25
2023-01-20T07:55:56.568Z,1.26
2023-01-20T07:58:23.032Z,1.25
2023-01-20T08:00:49.460Z,1.25
2023-01-20T08:03:16.322Z,1.24
2023-01-20T08:05:42.914Z,1.25
2023-01-20T08:08:09.356Z,1.27
2023-01-20T08:10:35.849Z,1.26
2023-01-20T08:13:02.310Z,1.29
2023-01-20T08:15:28.801Z,1.29
2023-01-20T08:17:56.274Z,1.28
2023-01-20T08:20:23.046Z,1.27
2023-01-20T08:22:49.533Z,1.27
2023-01-20T08:25:16.460Z,1.28
2023-01-20T08:27:43.229Z,1.32
2023-01-20T08:30:10.315Z,1.34
2023-01-20T08:32:36.746Z,1.36
2023-01-20T08:35:03.351Z,1.35
2023-01-20T08:37:29.785Z,1.36
2023-01-20T08:39:56.300Z,1.36
2023-01-20T08:42:22.895Z,1.39
2023-01-20T08:44:52.664Z,1.41
2023-01-20T08:47:19.112Z,1.42
2023-01-20T08:49:45.665Z,1.43
2023-01-20T08:52:12.354Z,1.42
2023-01-20T08:54:38.887Z,1.45
2023-01-20T08:57:05.343Z,1.45
2023-01-20T08:59:31.745Z,1.45
2023-01-20T09:01:58.173Z,1.48
2023-01-20T09:04:24.657Z,1.52
2023-01-20T09:06:52.661Z,1.53
2023-01-20T09:09:21.085Z,1.56
2023-01-20T09:11:51.322Z,1.57
2023-01-20T09:14:22.629Z,1.59
2023-01-20T09:16:49.299Z,1.56
2023-01-20T09:19:16.522Z,1.54
2023-01-20T09:21:44.041Z,1.54
2023-01-20T09:24:10.537Z,1.55
2023-01-20T09:26:41.629Z,1.54
2023-01-20T09:29:11.964Z,1.54
2023-01-20T09:31:44.495Z,1.55
2023-01-20T09:34:22.453Z,1.54
2023-01-20T09:36:53.896Z,1.54
2023-01-20T09:39:39.596Z,1.54
2023-01-20T09:42:42.390Z,1.57
2023-01-20T09:45:26.108Z,1.60
2023-01-20T09:48:03.557Z,1.60
2023-01-20T09:51:11.957Z,1.59
2023-01-20T09:53:38.335Z,1.59
2023-01-20T09:56:11.744Z,1.60
2023-01-20T09:58:46.548Z,1.61
2023-01-20T10:01:30.575Z,1.64
2023-01-20T10:04:12.437Z,1.65
2023-01-20T10:06:44.347Z,1.67
2023-01-20T10:09:49.744Z,1.68
2023-01-20T10:12:30.727Z,1.66
2023-01-20T10:15:13.120Z,1.68
2023-01-20T10:17:46.009Z,1.70
2023-01-20T10:20:28.087Z,1.70
2023-01-20T10:23:17.790Z,1.75
2023-01-20T10:25:50.949Z,1.77
2023-01-20T10:28:28.081Z,1.75
2023-01-20T10:30:58.191Z,1.75
2023-01-20T10:33:41.905Z,1.78
2023-01-20T10:36:14.664Z,1.83
2023-01-20T10:39:04.808Z,1.84
2023-01-20T10:41:31.252Z,1.85
2023-01-20T10:43:59.600Z,1.85
2023-01-20T10:46:51.583Z,1.90
2023-01-20T10:49:40.036Z,1.96
2023-01-20T10:52:25.255Z,1.99
2023-01-20T10:55:24.005Z,1.97
2023-01-20T10:57:56.434Z,1.96
2023-01-20T11:00:26.884Z,1.95
2023-01-20T11:02:54.105Z,1.95
2023-01-20T11:05:24.247Z,1.93
2023-01-20T11:07:53.825Z,1.92
2023-01-20T11:10:32.511Z,1.90
2023-01-20T11:13:02.260Z,1.90
2023-01-20T11:15:43.219Z,1.94
2023-01-20T11:18:15.964Z,1.97
2023-01-20T11:20:46.454Z,1.98
2023-01-20T11:23:27.136Z,1.98
2023-01-20T11:25:56.610Z,2.00
2023-01-20T11:28:24.496Z,2.04
2023-01-20T11:30:56.247Z,2.03
2023-01-20T11:33:26.349Z,2.04
2023-01-20T11:36:05.012Z,2.01
2023-01-20T11:38:41.914Z,2.02
2023-01-20T11:41:22.004Z,2.02
2023-01-20T11:43:49.970Z,2.02
2023-01-20T11:46:42.865Z,2.01
2023-01-20T11:49:22.381Z,2.02
2023-01-20T11:51:57.288Z,2.07
2023-01-20T11:54:25.067Z,2.09
2023-01-20T11:56:59.732Z,2.10
2023-01-20T11:59:28.490Z,2.11
2023-01-20T12:02:01.506Z,2.12
2023-01-20T12:04:36.961Z,2.15
2023-01-20T12:07:09.321Z,2.15
2023-01-20T12:09:44.297Z,2.17
2023-01-20T12:12:41.609Z,2.15
2023-01-20T12:15:17.288Z,2.16
2023-01-20T12:17:56.162Z,2.14
2023-01-20T12:20:54.477Z,2.14
2023-01-20T12:23:45.894Z,2.16
2023-01-20T12:26:21.740Z,2.18
2023-01-20T12:28:54.341Z,2.19
2023-01-20T12:31:24.014Z,2.19
2023-01-20T12:33:54.639Z,2.19
2023-01-20T12:36:45.682Z,2.21
2023-01-20T12:39:15.120Z,2.22
2023-01-20T12:42:05.273Z,2.23
2023-01-20T12:44:43.894Z,2.25
2023-01-20T12:47:17.377Z,2.27
2023-01-20T12:49:51.035Z,2.25
2023-01-20T12:52:33.019Z,2.25
2023-01-20T12:55:09.851Z,2.23
2023-01-20T12:58:05.586Z,2.27
2023-01-20T13:00:48.385Z,2.26
2023-01-20T13:03:44.504Z,2.24
2023-01-20T13:06:43.039Z,2.24
2023-01-20T13:09:21.545Z,2.24
2023-01-20T13:12:17.254Z,2.23
2023-01-20T13:14:58.650Z,2.24
2023-01-20T13:17:40.483Z,2.23
2023-01-20T13:20:26.292Z,2.24
2023-01-20T13:22:53.779Z,2.23
2023-01-20T13:25:21.734Z,2.22
2023-01-20T13:27:51.072Z,2.26
2023-01-20T13:30:42.983Z,2.26
2023-01-20T13:33:20.028Z,2.24
2023-01-20T13:35:49.741Z,2.22
2023-01-20T13:38:22.706Z,2.22
2023-01-20T13:40:52.284Z,2.21
2023-01-20T13:43:27.428Z,2.20
2023-01-20T13:46:02.920Z,2.19
2023-01-20T13:49:03.893Z,2.22
2023-01-20T13:51:50.796Z,2.23
2023-01-20T13:54:23.901Z,2.23
2023-01-20T13:56:50.726Z,2.23
2023-01-20T13:59:17.631Z,2.24
2023-01-20T14:01:44.209Z,2.30
2023-01-20T14:04:19.575Z,2.31
2023-01-20T14:06:51.806Z,2.33
2023-01-20T14:09:23.502Z,2.33
2023-01-20T14:11:54.617Z,2.33
2023-01-20T14:14:24.773Z,2.30
2023-01-20T14:16:51.854Z,2.30
2023-01-20T14:19:25.305Z,2.30
2023-01-20T14:21:54.931Z,2.31
2023-01-20T14:24:31.125Z,2.33
2023-01-20T14:27:16.514Z,2.32
2023-01-20T14:29:43.923Z,2.34
2023-01-20T14:32:34.334Z,2.32
2023-01-20T14:35:02.445Z,2.34
2023-01-20T14:37:35.445Z,2.32
2023-01-20T14:40:23.906Z,2.33
2023-01-20T14:43:01.038Z,2.29
2023-01-20T14:45:32.764Z,2.24
2023-01-20T14:48:01.813Z,2.23
2023-01-20T14:50:28.811Z,2.22
2023-01-20T14:52:56.173Z,2.20
2023-01-20T14:55:36.623Z,2.18
2023-01-20T14:58:15.217Z,2.16
2023-01-20T15:00:44.312Z,2.15
2023-01-20T15:03:14.259Z,2.14
2023-01-20T15:06:00.578Z,2.14
2023-01-20T15:09:04.375Z,2.14
2023-01-20T15:11:32.573Z,2.14
2023-01-20T15:14:02.008Z,2.12
2023-01-20T15:16:41.606Z,2.10
2023-01-20T15:19:14.512Z,2.09
2023-01-20T15:21:49.296Z,2.09
2023-01-20T15:24:24.325Z,2.08
2023-01-20T15:26:53.741Z,2.08
2023-01-20T15:29:28.789Z,2.08
2023-01-20T15:31:58.518Z,2.08
2023-01-20T15:34:26.139Z,2.07
2023-01-20T15:36:54.598Z,2.07
2023-01-20T15:39:23.736Z,2.06
2023-01-20T15:41:56.970Z,2.05
2023-01-20T15:44:25.262Z,2.07
2023-01-20T15:46:53.826Z,2.07
2023-01-20T15:49:21.803Z,2.06
2023-01-20T15:51:51.734Z,2.07
2023-01-20T15:54:18.137Z,2.06
2023-01-20T15:56:44.653Z,2.06
2023-01-20T15:59:16.548Z,2.03
2023-01-20T16:01:46.967Z,2.01
2023-01-20T16:04:13.542Z,1.99
2023-01-20T16:06:40.169Z,1.99
2023-01-20T16:09:38.549Z,1.96
2023-01-20T16:12:05.187Z,1.96
2023-01-20T16:14:31.579Z,1.95
2023-01-20T16:16:58.003Z,1.94
2023-01-20T16:19:24.505Z,1.94
2023-01-20T16:21:50.875Z,1.92
2023-01-20T16:24:17.327Z,1.90
2023-01-20T16:26:46.770Z,1.90
2023-01-20T16:29:13.235Z,1.87
2023-01-20T16:31:39.826Z,1.88
2023-01-20T16:34:08.005Z,1.86
2023-01-20T16:36:34.522Z,1.84
2023-01-20T16:39:00.986Z,1.82
2023-01-20T16:41:30.647Z,1.80
2023-01-20T16:43:58.365Z,1.76
2023-01-20T16:46:27.462Z,1.73
2023-01-20T16:49:01.811Z,1.67
2023-01-20T16:51:29.528Z,1.63
2023-01-20T16:53:56.888Z,1.55
2023-01-20T16:56:27.697Z,1.51
2023-01-20T16:58:58.916Z,1.47
2023-01-20T17:01:26.060Z,1.44
2023-01-20T17:03:57.333Z,1.36
2023-01-20T17:06:26.386Z,1.33
2023-01-20T17:08:54.593Z,1.30
2023-01-20T17:11:27.081Z,1.29
2023-01-20T17:13:53.941Z,1.26
2023-01-20T17:16:21.656Z,1.23
2023-01-20T17:18:52.474Z,1.18
2023-01-20T17:21:20.630Z,1.15
2023-01-20T17:23:55.287Z,1.16
2023-01-20T17:26:22.484Z,1.15
2023-01-20T17:28:49.075Z,1.12
2023-01-20T17:31:15.640Z,1.04
2023-01-20T17:33:46.355Z,0.97
2023-01-20T17:36:13.130Z,0.95
2023-01-20T17:38:42.439Z,0.96
2023-01-20T17:41:08.941Z,0.98
2023-01-20T17:43:48.124Z,0.95
2023-01-20T17:46:20.018Z,0.91
2023-01-20T17:48:47.105Z,0.85
2023-01-20T17:51:22.138Z,0.86
2023-01-20T17:53:49.240Z,0.81
2023-01-20T17:56:17.075Z,0.80
2023-01-20T17:58:44.788Z,0.80
2023-01-20T18:01:15.564Z,0.78
2023-01-20T18:03:43.389Z,0.79
2023-01-20T18:06:14.890Z,0.75
2023-01-20T18:08:42.152Z,0.78
2023-01-20T18:11:11.408Z,0.70
2023-01-20T18:13:38.460Z,0.65
2023-01-20T18:16:07.079Z,0.65
2023-01-20T18:18:33.712Z,0.62
2023-01-20T18:21:16.358Z,0.57
2023-01-20T18:23:43.552Z,0.55
2023-01-20T18:26:11.789Z,0.53
2023-01-20T18:28:38.251Z,0.49
2023-01-20T18:31:13.599Z,0.46
2023-01-20T18:33:47.421Z,0.43
2023-01-20T18:36:23.616Z,0.40
2023-01-20T18:38:58.402Z,0.34
2023-01-20T18:41:26.548Z,0.30
2023-01-20T18:43:53.194Z,0.26
2023-01-20T18:46:20.092Z,0.27
2023-01-20T18:48:48.859Z,0.27
2023-01-20T18:51:17.756Z,0.27
2023-01-20T18:53:45.718Z,0.25
2023-01-20T18:56:15.220Z,0.23
2023-01-20T18:58:49.672Z,0.26
2023-01-20T19:01:19.043Z,0.28
2023-01-20T19:03:46.801Z,0.30
2023-01-20T19:06:34.932Z,0.27
2023-01-20T19:09:01.868Z,0.24
2023-01-20T19:11:34.396Z,0.20
2023-01-20T19:14:00.935Z,0.20
2023-01-20T19:16:33.686Z,0.16
2023-01-20T19:19:02.418Z,0.20
2023-01-20T19:21:33.285Z,0.18
2023-01-20T19:24:05.733Z,0.16
2023-01-20T19:26:35.523Z,0.13
2023-01-20T19:29:11.778Z,0.13
2023-01-20T19:31:40.070Z,0.11
2023-01-20T19:34:07.854Z,0.06
2023-01-20T19:36:35.074Z,0.09
2023-01-20T19:39:01.574Z,0.07
2023-01-20T19:41:34.269Z,0.10
2023-01-20T19:44:03.099Z,0.05
2023-01-20T19:46:31.973Z,0.03
2023-01-20T19:48:59.679Z,0.00
2023-01-20T19:51:26.903Z,0.01
2023-01-20T19:53:57.781Z,0.00
2023-01-20T19:56:25.965Z,0.02
2023-01-20T19:58:54.207Z,-0.01
2023-01-20T20:01:25.732Z,-0.04
2023-01-20T20:03:54.260Z,-0.03
2023-01-20T20:06:32.072Z,0.01
2023-01-20T20:09:19.286Z,0.01
2023-01-20T20:11:47.313Z,0.00
2023-01-20T20:14:16.573Z,-0.03
2023-01-20T20:16:43.129Z,-0.05
2023-01-20T20:19:12.228Z,-0.01
2023-01-20T20:21:38.773Z,-0.03
2023-01-20T20:24:05.719Z,-0.06
2023-01-20T20:26:35.182Z,-0.09
2023-01-20T20:29:03.445Z,-0.07
2023-01-20T20:31:30.079Z,-0.04
2023-01-20T20:33:58.927Z,-0.10
2023-01-20T20:36:28.312Z,-0.08
2023-01-20T20:38:55.043Z,-0.07
2023-01-20T20:41:22.299Z,-0.08
2023-01-20T20:43:48.746Z,-0.10
2023-01-20T20:46:16.403Z,-0.12
2023-01-20T20:48:43.111Z,-0.12
2023-01-20T20:51:14.891Z,-0.12
2023-01-20T20:53:42.339Z,-0.12
2023-01-20T20:56:11.268Z,-0.12
2023-01-20T20:58:51.614Z,-0.11
2023-01-20T21:01:25.584Z,-0.09
2023-01-20T21:03:52.067Z,-0.10
2023-01-20T21:06:18.577Z,-0.09
2023-01-20T21:08:45.043Z,-0.10
2023-01-20T21:11:13.420Z,-0.08
2023-01-20T21:13:41.922Z,-0.12
2023-01-20T21:16:11.627Z,-0.10
2023-01-20T21:18:39.177Z,-0.10
2023-01-20T21:21:08.441Z,-0.10
2023-01-20T21:23:35.383Z,-0.11
2023-01-20T21:26:09.250Z,-0.10
2023-01-20T21:28:36.418Z,-0.16
2023-01-20T21:31:07.528Z,-0.17
2023-01-20T21:33:33.978Z,-0.15
2023-01-20T21:36:03.962Z,-0.17
2023-01-20T21:38:31.427Z,-0.17
2023-01-20T21:41:03.827Z,-0.16
2023-01-20T21:43:49.873Z,-0.19
2023-01-20T21:46:16.713Z,-0.20
2023-01-20T21:49:01.629Z,-0.20
2023-01-20T21:51:47.106Z,-0.20
2023-01-20T21:54:13.718Z,-0.23
2023-01-20T21:56:40.251Z,-0.21
2023-01-20T21:59:07.719Z,-0.22
2023-01-20T22:01:34.875Z,-0.24
2023-01-20T22:04:01.685Z,-0.28
2023-01-20T22:06:28.276Z,-0.27
2023-01-20T22:08:54.823Z,-0.28
2023-01-20T22:11:21.802Z,-0.30
2023-01-20T22:13:48.226Z,-0.31
2023-01-20T22:16:14.666Z,-0.34
2023-01-20T22:18:45.407Z,-0.32
2023-01-20T22:21:12.038Z,-0.33
2023-01-20T22:23:38.960Z,-0.33
2023-01-20T22:26:05.727Z,-0.36
2023-01-20T22:28:39.580Z,-0.38
2023-01-20T22:31:08.264Z,-0.44
2023-01-20T22:33:34.901Z,-0.48
2023-01-20T22:36:02.139Z,-0.47
2023-01-20T22:38:29.033Z,-0.48
2023-01-20T22:40:55.613Z,-0.48
2023-01-20T22:43:22.085Z,-0.48
2023-01-20T22:45:48.772Z,-0.48
2023-01-20T22:48:15.271Z,-0.43
2023-01-20T22:50:41.678Z,-0.46
2023-01-20T22:53:08.147Z,-0.45
2023-01-20T22:55:34.615Z,-0.47
2023-01-20T22:58:01.071Z,-0.47
2023-01-20T23:00:27.580Z,-0.46
2023-01-20T23:02:53.983Z,-0.60
2023-01-20T23:05:20.432Z,-0.62
2023-01-20T23:07:46.847Z,-0.56
2023-01-20T23:10:33.323Z,-0.57
2023-01-20T23:12:59.852Z,-0.57
2023-01-20T23:15:26.361Z,-0.56
2023-01-20T23:17:52.845Z,-0.58
2023-01-20T23:20:19.377Z,-0.56
2023-01-20T23:22:45.910Z,-0.59
2023-01-20T23:25:12.451Z,-0.61
2023-01-20T23:27:38.933Z,-0.66
2023-01-20T23:30:06.090Z,-0.65
2023-01-20T23:32:32.528Z,-0.71
2023-01-20T23:34:58.968Z,-0.66
2023-01-20T23:37:25.426Z,-0.66
2023-01-20T23:39:52.935Z,-0.67
2023-01-20T23:42:19.492Z,-0.65
2023-01-20T23:44:45.918Z,-0.69
2023-01-20T23:47:12.386Z,-0.72
2023-01-20T23:49:38.918Z,-0.75
2023-01-20T23:52:06.108Z,-0.72
2023-01-20T23:54:32.515Z,-0.70
2023-01-20T23:56:58.970Z,-0.75
2023-01-20T23:59:25.465Z,-0.75
